createdAt,value
2022-08-29T00:00:44.233Z,19.55
2022-08-29T00:01:43.551Z,19.56
2022-08-29T00:02:43.560Z,19.48
2022-08-29T00:03:45.532Z,19.44
2022-08-29T00:04:45.375Z,19.45
2022-08-29T00:05:44.791Z,19.45
2022-08-29T00:06:43.343Z,19.47
2022-08-29T00:07:43.338Z,19.39
2022-08-29T00:08:43.326Z,19.44
2022-08-29T00:09:44.142Z,19.53
2022-08-29T00:10:46.386Z,19.44
2022-08-29T00:11:50.938Z,19.38
2022-08-29T00:12:43.348Z,19.41
2022-08-29T00:13:43.376Z,19.34
2022-08-29T00:14:43.360Z,19.3
2022-08-29T00:15:49.574Z,19.3
2022-08-29T00:16:43.538Z,19.12
2022-08-29T00:17:43.377Z,19.19
2022-08-29T00:18:43.373Z,19.17
2022-08-29T00:19:43.369Z,19.15
2022-08-29T00:20:43.356Z,19.16
2022-08-29T00:21:43.384Z,19.19
2022-08-29T00:22:43.355Z,19.22
2022-08-29T00:23:43.351Z,19.19
2022-08-29T00:24:43.386Z,19.19
2022-08-29T00:25:43.367Z,19.17
2022-08-29T00:26:46.201Z,19.15
2022-08-29T00:27:50.014Z,19.12
2022-08-29T00:28:43.369Z,19.2
2022-08-29T00:29:43.430Z,19.16
2022-08-29T00:30:43.364Z,19.15
2022-08-29T00:31:43.547Z,19.19
2022-08-29T00:32:43.400Z,19.12
2022-08-29T00:33:43.947Z,19.09
2022-08-29T00:34:43.394Z,19.11
2022-08-29T00:35:45.006Z,19.15
2022-08-29T00:36:51.433Z,19.15
2022-08-29T00:37:46.487Z,19.09
2022-08-29T00:38:46.330Z,19.08
2022-08-29T00:39:43.452Z,19.15
2022-08-29T00:40:47.141Z,19.19
2022-08-29T00:41:43.393Z,19.24
2022-08-29T00:42:43.396Z,19.23
2022-08-29T00:43:43.387Z,19.22
2022-08-29T00:44:43.415Z,19.08
2022-08-29T00:45:43.693Z,19.04
2022-08-29T00:46:43.405Z,19.17
2022-08-29T00:47:43.405Z,19.15
2022-08-29T00:48:43.413Z,19.24
2022-08-29T00:49:43.544Z,19.12
2022-08-29T00:50:43.405Z,19.17
2022-08-29T00:51:43.409Z,19.11
2022-08-29T00:52:43.436Z,19.16
2022-08-29T00:53:43.417Z,19.11
2022-08-29T00:54:43.462Z,19.04
2022-08-29T00:55:43.416Z,19
2022-08-29T00:56:43.410Z,18.96
2022-08-29T00:57:43.423Z,18.98
2022-08-29T00:58:43.419Z,18.97
2022-08-29T00:59:43.314Z,18.94
2022-08-29T01:00:43.597Z,18.91
2022-08-29T01:01:43.463Z,18.92
2022-08-29T01:02:45.329Z,18.85
2022-08-29T01:03:47.310Z,18.97
2022-08-29T01:04:43.460Z,18.92
2022-08-29T01:05:43.469Z,18.94
2022-08-29T01:06:43.445Z,18.81
2022-08-29T01:07:45.341Z,18.89
2022-08-29T01:08:43.441Z,18.83
2022-08-29T01:09:46.290Z,18.83
2022-08-29T01:10:43.442Z,18.81
2022-08-29T01:11:43.438Z,18.82
2022-08-29T01:12:43.477Z,18.78
2022-08-29T01:13:43.471Z,18.81
2022-08-29T01:14:43.493Z,18.92
2022-08-29T01:15:43.452Z,18.81
2022-08-29T01:16:43.724Z,18.86
2022-08-29T01:17:43.513Z,18.85
2022-08-29T01:18:43.495Z,18.81
2022-08-29T01:19:43.500Z,18.71
2022-08-29T01:20:46.260Z,18.76
2022-08-29T01:21:43.468Z,18.79
2022-08-29T01:22:43.471Z,18.78
2022-08-29T01:23:43.467Z,18.78
2022-08-29T01:24:43.512Z,18.86
2022-08-29T01:25:43.513Z,18.81
2022-08-29T01:26:43.466Z,18.74
2022-08-29T01:27:44.046Z,18.74
2022-08-29T01:28:43.474Z,18.78
2022-08-29T01:29:43.468Z,18.85
2022-08-29T01:30:43.482Z,18.71
2022-08-29T01:32:02.372Z,18.7
2022-08-29T01:32:43.477Z,18.7
2022-08-29T01:33:43.485Z,18.81
2022-08-29T01:34:43.484Z,18.71
2022-08-29T01:35:43.525Z,18.63
2022-08-29T01:36:43.734Z,18.64
2022-08-29T01:37:43.498Z,18.74
2022-08-29T01:38:43.544Z,18.76
2022-08-29T01:39:43.495Z,18.66
2022-08-29T01:40:43.699Z,18.66
2022-08-29T01:41:43.493Z,18.74
2022-08-29T01:42:46.377Z,18.66
2022-08-29T01:43:43.518Z,18.67
2022-08-29T01:44:43.505Z,18.58
2022-08-29T01:45:43.669Z,18.63
2022-08-29T01:46:43.554Z,18.6
2022-08-29T01:47:43.513Z,18.49
2022-08-29T01:48:43.509Z,18.57
2022-08-29T01:49:45.595Z,18.45
2022-08-29T01:50:43.543Z,18.45
2022-08-29T01:51:43.527Z,18.45
2022-08-29T01:52:43.540Z,18.45
2022-08-29T01:53:46.657Z,18.45
2022-08-29T01:54:43.552Z,18.48
2022-08-29T01:55:43.549Z,18.48
2022-08-29T01:56:43.527Z,18.52
2022-08-29T01:57:43.534Z,18.42
2022-08-29T01:58:43.523Z,18.43
2022-08-29T01:59:43.533Z,18.51
2022-08-29T02:00:43.796Z,18.45
2022-08-29T02:01:43.695Z,18.51
2022-08-29T02:02:44.836Z,18.48
2022-08-29T02:03:43.535Z,18.43
2022-08-29T02:04:46.563Z,18.57
2022-08-29T02:05:43.566Z,18.51
2022-08-29T02:06:43.540Z,18.51
2022-08-29T02:07:43.546Z,18.52
2022-08-29T02:08:43.543Z,18.45
2022-08-29T02:09:50.821Z,18.46
2022-08-29T02:10:43.569Z,18.52
2022-08-29T02:11:43.573Z,18.46
2022-08-29T02:12:43.554Z,18.45
2022-08-29T02:13:43.549Z,18.37
2022-08-29T02:14:43.562Z,18.45
2022-08-29T02:15:46.676Z,18.33
2022-08-29T02:16:43.880Z,18.41
2022-08-29T02:17:43.569Z,18.34
2022-08-29T02:18:43.594Z,18.36
2022-08-29T02:19:43.598Z,18.36
2022-08-29T02:20:44.510Z,18.36
2022-08-29T02:21:43.413Z,18.33
2022-08-29T02:22:43.612Z,18.33
2022-08-29T02:23:43.812Z,18.3
2022-08-29T02:24:43.573Z,18.27
2022-08-29T02:25:43.589Z,18.24
2022-08-29T02:26:46.658Z,18.3
2022-08-29T02:27:43.586Z,18.13
2022-08-29T02:28:43.585Z,18.16
2022-08-29T02:29:43.588Z,18.16
2022-08-29T02:30:43.609Z,18.18
2022-08-29T02:31:47.213Z,18.06
2022-08-29T02:32:43.589Z,18.09
2022-08-29T02:33:43.598Z,18.18
2022-08-29T02:34:47.577Z,18.15
2022-08-29T02:35:47.419Z,18.15
2022-08-29T02:36:48.167Z,18.09
2022-08-29T02:37:46.706Z,18.12
2022-08-29T02:38:43.602Z,18.15
2022-08-29T02:39:43.625Z,18.15
2022-08-29T02:40:43.805Z,18.15
2022-08-29T02:41:46.859Z,18.18
2022-08-29T02:42:46.690Z,18.08
2022-08-29T02:43:43.615Z,18.03
2022-08-29T02:44:43.606Z,18.06
2022-08-29T02:45:43.620Z,18.08
2022-08-29T02:46:43.939Z,18.13
2022-08-29T02:47:43.607Z,18.06
2022-08-29T02:48:58.262Z,18.05
2022-08-29T02:49:44.284Z,18
2022-08-29T02:50:43.618Z,18.02
2022-08-29T02:51:43.623Z,18.11
2022-08-29T02:52:43.617Z,18.03
2022-08-29T02:53:48.739Z,18.08
2022-08-29T02:54:43.632Z,18.02
2022-08-29T02:55:43.692Z,18.03
2022-08-29T02:56:43.632Z,18.08
2022-08-29T02:57:43.685Z,18.13
2022-08-29T02:58:43.633Z,18.08
2022-08-29T02:59:43.664Z,18.05
2022-08-29T03:00:43.807Z,18.05
2022-08-29T03:01:43.862Z,17.97
2022-08-29T03:02:43.647Z,18.06
2022-08-29T03:03:43.644Z,18
2022-08-29T03:04:46.659Z,17.98
2022-08-29T03:05:43.690Z,17.98
2022-08-29T03:06:43.657Z,17.94
2022-08-29T03:07:45.972Z,17.97
2022-08-29T03:08:43.670Z,17.94
2022-08-29T03:09:43.655Z,17.88
2022-08-29T03:10:43.650Z,17.95
2022-08-29T03:11:43.656Z,17.87
2022-08-29T03:12:43.520Z,18.02
2022-08-29T03:13:44.067Z,17.98
2022-08-29T03:14:43.660Z,17.97
2022-08-29T03:15:43.681Z,17.88
2022-08-29T03:16:43.811Z,17.88
2022-08-29T03:17:43.671Z,17.8
2022-08-29T03:18:43.691Z,17.82
2022-08-29T03:19:43.672Z,17.82
2022-08-29T03:20:43.676Z,17.73
2022-08-29T03:21:43.686Z,17.71
2022-08-29T03:22:43.669Z,17.75
2022-08-29T03:23:43.672Z,17.68
2022-08-29T03:24:43.698Z,17.73
2022-08-29T03:25:43.674Z,17.66
2022-08-29T03:26:43.705Z,17.63
2022-08-29T03:27:43.677Z,17.54
2022-08-29T03:28:43.691Z,17.53
2022-08-29T03:29:43.679Z,17.56
2022-08-29T03:30:43.693Z,17.53
2022-08-29T03:31:43.857Z,17.44
2022-08-29T03:32:44.871Z,17.56
2022-08-29T03:33:43.699Z,17.5
2022-08-29T03:34:43.699Z,17.53
2022-08-29T03:35:43.708Z,17.49
2022-08-29T03:36:47.623Z,17.5
2022-08-29T03:37:43.704Z,17.42
2022-08-29T03:38:43.820Z,17.37
2022-08-29T03:39:43.697Z,17.5
2022-08-29T03:40:44.035Z,17.37
2022-08-29T03:41:43.730Z,17.46
2022-08-29T03:42:43.706Z,17.38
2022-08-29T03:43:43.711Z,17.42
2022-08-29T03:44:43.712Z,17.44
2022-08-29T03:45:43.720Z,17.41
2022-08-29T03:46:44.001Z,17.39
2022-08-29T03:47:46.826Z,17.41
2022-08-29T03:48:43.732Z,17.41
2022-08-29T03:49:43.735Z,17.37
2022-08-29T03:50:43.722Z,17.42
2022-08-29T03:51:43.743Z,17.46
2022-08-29T03:52:43.878Z,17.38
2022-08-29T03:53:43.729Z,17.35
2022-08-29T03:54:43.732Z,17.37
2022-08-29T03:55:43.728Z,17.39
2022-08-29T03:56:43.762Z,17.31
2022-08-29T03:57:43.735Z,17.37
2022-08-29T03:58:53.029Z,17.28
2022-08-29T03:59:43.738Z,17.3
2022-08-29T04:00:43.756Z,17.24
2022-08-29T04:01:43.957Z,17.24
2022-08-29T04:02:43.898Z,17.22
2022-08-29T04:03:43.741Z,17.31
2022-08-29T04:04:49.661Z,17.27
2022-08-29T04:05:43.590Z,17.2
2022-08-29T04:06:43.634Z,17.16
2022-08-29T04:07:43.767Z,17.23
2022-08-29T04:08:43.756Z,17.24
2022-08-29T04:09:46.791Z,17.13
2022-08-29T04:10:43.772Z,17.22
2022-08-29T04:11:43.785Z,17.2
2022-08-29T04:12:43.786Z,17.16
2022-08-29T04:13:43.763Z,17.14
2022-08-29T04:14:43.838Z,17.16
2022-08-29T04:15:44.015Z,17.14
2022-08-29T04:16:43.798Z,17.2
2022-08-29T04:17:58.418Z,17.23
2022-08-29T04:18:43.779Z,17.19
2022-08-29T04:19:43.781Z,17.16
2022-08-29T04:20:46.521Z,17.19
2022-08-29T04:21:43.791Z,17.34
2022-08-29T04:22:43.805Z,17.19
2022-08-29T04:23:43.785Z,17.23
2022-08-29T04:24:44.475Z,17.19
2022-08-29T04:25:43.794Z,17.27
2022-08-29T04:26:43.839Z,17.28
2022-08-29T04:27:43.787Z,17.12
2022-08-29T04:28:43.790Z,17.19
2022-08-29T04:29:43.791Z,17.2
2022-08-29T04:30:46.439Z,17.16
2022-08-29T04:31:47.366Z,17.13
2022-08-29T04:32:43.799Z,17.07
2022-08-29T04:33:43.803Z,17.16
2022-08-29T04:34:43.800Z,17.23
2022-08-29T04:35:44.101Z,17.09
2022-08-29T04:36:43.792Z,17.14
2022-08-29T04:37:43.815Z,17.07
2022-08-29T04:38:43.810Z,17.13
2022-08-29T04:39:43.807Z,17.23
2022-08-29T04:40:44.122Z,17.16
2022-08-29T04:41:43.842Z,17.19
2022-08-29T04:42:46.588Z,17.1
2022-08-29T04:43:43.822Z,17.19
2022-08-29T04:44:43.822Z,17.22
2022-08-29T04:45:43.824Z,17.23
2022-08-29T04:46:44.077Z,17.16
2022-08-29T04:47:46.636Z,17.19
2022-08-29T04:48:43.828Z,17.22
2022-08-29T04:49:43.815Z,17.2
2022-08-29T04:50:43.849Z,17.17
2022-08-29T04:51:43.825Z,17.31
2022-08-29T04:52:43.830Z,17.2
2022-08-29T04:53:46.840Z,17.27
2022-08-29T04:54:43.842Z,17.3
2022-08-29T04:55:46.650Z,17.16
2022-08-29T04:56:49.703Z,17.24
2022-08-29T04:57:43.909Z,17.27
2022-08-29T04:58:48.605Z,17.22
2022-08-29T04:59:44.151Z,17.2
2022-08-29T05:00:43.839Z,17.3
2022-08-29T05:01:46.775Z,17.27
2022-08-29T05:02:43.994Z,17.34
2022-08-29T05:03:43.869Z,17.3
2022-08-29T05:04:46.949Z,17.35
2022-08-29T05:05:44.292Z,17.28
2022-08-29T05:06:43.856Z,17.35
2022-08-29T05:07:43.876Z,17.38
2022-08-29T05:08:43.854Z,17.41
2022-08-29T05:09:46.880Z,17.34
2022-08-29T05:10:43.868Z,17.35
2022-08-29T05:11:43.859Z,17.37
2022-08-29T05:12:43.886Z,17.34
2022-08-29T05:13:47.213Z,17.49
2022-08-29T05:14:43.866Z,17.42
2022-08-29T05:15:47.215Z,17.46
2022-08-29T05:16:43.872Z,17.44
2022-08-29T05:17:43.920Z,17.38
2022-08-29T05:18:43.881Z,17.53
2022-08-29T05:19:49.801Z,17.52
2022-08-29T05:20:46.711Z,17.49
2022-08-29T05:21:43.889Z,17.53
2022-08-29T05:22:43.897Z,17.46
2022-08-29T05:23:43.887Z,17.53
2022-08-29T05:24:43.886Z,17.47
2022-08-29T05:25:43.891Z,17.44
2022-08-29T05:26:44.117Z,17.57
2022-08-29T05:27:43.906Z,17.53
2022-08-29T05:28:43.897Z,17.5
2022-08-29T05:29:43.897Z,17.56
2022-08-29T05:30:43.990Z,17.59
2022-08-29T05:31:50.024Z,17.65
2022-08-29T05:32:43.949Z,17.59
2022-08-29T05:33:43.910Z,17.66
2022-08-29T05:34:43.900Z,17.66
2022-08-29T05:35:44.871Z,17.69
2022-08-29T05:36:43.941Z,17.69
2022-08-29T05:37:43.925Z,17.76
2022-08-29T05:38:43.907Z,17.8
2022-08-29T05:39:43.911Z,17.75
2022-08-29T05:40:44.061Z,17.86
2022-08-29T05:41:43.917Z,17.76
2022-08-29T05:42:43.946Z,17.79
2022-08-29T05:43:43.922Z,17.8
2022-08-29T05:44:43.932Z,17.88
2022-08-29T05:45:43.934Z,17.9
2022-08-29T05:46:44.108Z,17.93
2022-08-29T05:47:43.938Z,18.02
2022-08-29T05:48:43.968Z,18.06
2022-08-29T05:49:43.949Z,18.05
2022-08-29T05:50:43.940Z,18.13
2022-08-29T05:51:44.532Z,18.19
2022-08-29T05:52:43.967Z,18.46
2022-08-29T05:53:43.933Z,18.64
2022-08-29T05:54:43.948Z,18.73
2022-08-29T05:55:44.938Z,18.88
2022-08-29T05:56:43.937Z,18.92
2022-08-29T05:57:43.965Z,19.08
2022-08-29T05:58:43.945Z,19.22
2022-08-29T05:59:43.951Z,19.29
2022-08-29T06:00:45.586Z,19.38
2022-08-29T06:01:43.947Z,19.55
2022-08-29T06:02:44.603Z,19.64
2022-08-29T06:03:50.721Z,19.81
2022-08-29T06:04:43.955Z,19.77
2022-08-29T06:05:43.966Z,19.9
2022-08-29T06:06:43.958Z,20.07
2022-08-29T06:07:43.977Z,20.07
2022-08-29T06:08:46.704Z,20.1
2022-08-29T06:09:43.966Z,20.26
2022-08-29T06:10:43.966Z,20.44
2022-08-29T06:11:44.008Z,20.55
2022-08-29T06:12:43.987Z,20.27
2022-08-29T06:13:43.980Z,20.48
2022-08-29T06:14:52.530Z,20.49
2022-08-29T06:15:44.146Z,20.6
2022-08-29T06:16:43.977Z,20.66
2022-08-29T06:17:43.995Z,20.8
2022-08-29T06:18:43.975Z,20.98
2022-08-29T06:19:43.996Z,21.04
2022-08-29T06:20:43.989Z,21.19
2022-08-29T06:21:43.992Z,21.4
2022-08-29T06:22:45.095Z,21.54
2022-08-29T06:23:43.994Z,21.63
2022-08-29T06:24:47.204Z,21.96
2022-08-29T06:25:48.685Z,21.89
2022-08-29T06:26:43.994Z,21.72
2022-08-29T06:27:44.014Z,22.08
2022-08-29T06:28:44.003Z,22.19
2022-08-29T06:29:48.337Z,22.33
2022-08-29T06:30:44.176Z,22.41
2022-08-29T06:31:44.034Z,22.51
2022-08-29T06:32:44.020Z,22.63
2022-08-29T06:33:44.029Z,22.74
2022-08-29T06:34:44.011Z,22.68
2022-08-29T06:35:44.015Z,22.73
2022-08-29T06:36:47.103Z,22.91
2022-08-29T06:37:44.041Z,23.08
2022-08-29T06:38:44.017Z,22.84
2022-08-29T06:39:44.016Z,23.11
2022-08-29T06:40:44.256Z,23.13
2022-08-29T06:41:43.856Z,22.93
2022-08-29T06:42:44.048Z,22.63
2022-08-29T06:43:44.022Z,22.3
2022-08-29T06:44:48.947Z,22.14
2022-08-29T06:45:44.033Z,22.1
2022-08-29T06:46:44.230Z,22.1
2022-08-29T06:47:47.122Z,22.07
2022-08-29T06:48:44.038Z,21.91
2022-08-29T06:49:44.043Z,21.91
2022-08-29T06:50:48.144Z,21.75
2022-08-29T06:51:44.039Z,21.72
2022-08-29T06:52:47.065Z,21.5
2022-08-29T06:53:45.084Z,21.47
2022-08-29T06:54:46.844Z,21.48
2022-08-29T06:55:44.058Z,21.05
2022-08-29T06:56:46.901Z,21.33
2022-08-29T06:57:44.068Z,21.25
2022-08-29T06:58:44.768Z,21.22
2022-08-29T06:59:44.069Z,21.62
2022-08-29T07:00:47.463Z,21.97
2022-08-29T07:01:44.256Z,21.99
2022-08-29T07:02:44.282Z,22.14
2022-08-29T07:03:44.066Z,22.51
2022-08-29T07:04:44.501Z,22.77
2022-08-29T07:05:44.123Z,23.07
2022-08-29T07:06:44.077Z,23.08
2022-08-29T07:07:44.094Z,23.14
2022-08-29T07:08:59.807Z,23.71
2022-08-29T07:09:47.166Z,23.88
2022-08-29T07:10:44.072Z,23.71
2022-08-29T07:11:45.916Z,23.73
2022-08-29T07:12:44.102Z,23.56
2022-08-29T07:13:44.115Z,23.85
2022-08-29T07:14:44.114Z,23.94
2022-08-29T07:15:44.281Z,23.77
2022-08-29T07:16:44.088Z,24.07
2022-08-29T07:17:44.107Z,24.31
2022-08-29T07:18:44.090Z,23.94
2022-08-29T07:19:45.567Z,24.13
2022-08-29T07:20:47.185Z,23.96
2022-08-29T07:21:44.105Z,24.34
2022-08-29T07:22:44.112Z,24.55
2022-08-29T07:23:44.103Z,24.61
2022-08-29T07:24:44.113Z,24.89
2022-08-29T07:25:47.223Z,24.92
2022-08-29T07:26:44.101Z,24.85
2022-08-29T07:27:44.129Z,25.01
2022-08-29T07:28:50.178Z,25.14
2022-08-29T07:29:46.613Z,25.29
2022-08-29T07:30:44.422Z,25.29
2022-08-29T07:31:47.052Z,25.46
2022-08-29T07:32:44.295Z,25.37
2022-08-29T07:33:44.116Z,25.48
2022-08-29T07:34:44.121Z,25.49
2022-08-29T07:35:44.143Z,25.71
2022-08-29T07:36:47.066Z,25.71
2022-08-29T07:37:46.682Z,25.77
2022-08-29T07:38:44.151Z,25.95
2022-08-29T07:39:44.131Z,25.95
2022-08-29T07:40:44.343Z,26.1
2022-08-29T07:41:44.176Z,25.91
2022-08-29T07:42:47.168Z,25.98
2022-08-29T07:43:44.137Z,26.1
2022-08-29T07:44:44.149Z,26.15
2022-08-29T07:45:44.933Z,26.27
2022-08-29T07:46:44.141Z,26.11
2022-08-29T07:47:47.751Z,26.1
2022-08-29T07:48:44.154Z,26.19
2022-08-29T07:49:46.522Z,26.46
2022-08-29T07:50:44.159Z,26.36
2022-08-29T07:51:49.075Z,26.26
2022-08-29T07:52:44.178Z,25.77
2022-08-29T07:53:44.160Z,25.77
2022-08-29T07:54:44.195Z,25.92
2022-08-29T07:55:44.157Z,25.96
2022-08-29T07:56:44.168Z,26.13
2022-08-29T07:57:44.699Z,25.8
2022-08-29T07:58:47.393Z,25.81
2022-08-29T07:59:44.161Z,25.86
2022-08-29T08:00:44.197Z,25.98
2022-08-29T08:01:44.374Z,26.26
2022-08-29T08:02:44.353Z,25.92
2022-08-29T08:03:44.187Z,26.26
2022-08-29T08:04:45.633Z,25.99
2022-08-29T08:05:45.102Z,26.23
2022-08-29T08:06:44.913Z,25.96
2022-08-29T08:07:45.316Z,26.23
2022-08-29T08:08:44.207Z,26.41
2022-08-29T08:09:44.797Z,26.26
2022-08-29T08:10:46.036Z,26.27
2022-08-29T08:11:44.197Z,26.37
2022-08-29T08:12:44.210Z,25.67
2022-08-29T08:13:44.231Z,26.22
2022-08-29T08:14:44.191Z,26.64
2022-08-29T08:15:44.193Z,26.6
2022-08-29T08:16:49.311Z,26.71
2022-08-29T08:17:48.399Z,26.74
2022-08-29T08:18:44.205Z,26.79
2022-08-29T08:19:44.206Z,27.15
2022-08-29T08:20:44.215Z,27.05
2022-08-29T08:21:53.883Z,26.83
2022-08-29T08:22:44.235Z,27.18
2022-08-29T08:23:44.212Z,26.96
2022-08-29T08:24:44.216Z,26.91
2022-08-29T08:25:44.213Z,27.04
2022-08-29T08:26:44.217Z,27.04
2022-08-29T08:27:48.271Z,27.1
2022-08-29T08:28:44.234Z,27.4
2022-08-29T08:29:44.290Z,27.18
2022-08-29T08:30:47.429Z,26.26
2022-08-29T08:31:44.399Z,26.71
2022-08-29T08:32:54.143Z,26.49
2022-08-29T08:33:44.230Z,26.83
2022-08-29T08:34:44.235Z,26.83
2022-08-29T08:35:49.330Z,26.97
2022-08-29T08:36:49.059Z,27.15
2022-08-29T08:37:44.258Z,27.23
2022-08-29T08:38:44.255Z,27.16
2022-08-29T08:39:44.256Z,27.03
2022-08-29T08:40:44.519Z,27.18
2022-08-29T08:41:47.114Z,27.48
2022-08-29T08:42:44.280Z,27.58
2022-08-29T08:43:44.257Z,27.68
2022-08-29T08:44:44.285Z,27.82
2022-08-29T08:45:44.546Z,27.58
2022-08-29T08:46:44.278Z,27.68
2022-08-29T08:47:44.283Z,27.64
2022-08-29T08:48:44.286Z,27.43
2022-08-29T08:49:44.308Z,27.85
2022-08-29T08:50:44.292Z,28
2022-08-29T08:51:44.429Z,27.72
2022-08-29T08:52:47.138Z,27.61
2022-08-29T08:53:44.275Z,27.78
2022-08-29T08:54:44.297Z,28.04
2022-08-29T08:55:44.293Z,27.95
2022-08-29T08:56:44.438Z,27.91
2022-08-29T08:57:44.300Z,28.15
2022-08-29T08:58:44.276Z,28.33
2022-08-29T08:59:44.335Z,28.56
2022-08-29T09:00:44.287Z,28.57
2022-08-29T09:01:44.748Z,28.4
2022-08-29T09:02:44.557Z,28.68
2022-08-29T09:03:47.295Z,28.59
2022-08-29T09:04:44.310Z,28.52
2022-08-29T09:05:49.271Z,28.62
2022-08-29T09:06:44.314Z,28.68
2022-08-29T09:07:44.327Z,28.87
2022-08-29T09:08:44.409Z,29.02
2022-08-29T09:09:44.311Z,28.86
2022-08-29T09:10:44.317Z,29.06
2022-08-29T09:11:44.300Z,29.24
2022-08-29T09:12:44.316Z,28.72
2022-08-29T09:13:44.315Z,28.96
2022-08-29T09:14:47.347Z,29.06
2022-08-29T09:15:44.315Z,29.28
2022-08-29T09:16:44.530Z,28.94
2022-08-29T09:17:44.336Z,29.21
2022-08-29T09:18:44.344Z,29.27
2022-08-29T09:19:44.320Z,29.13
2022-08-29T09:20:44.341Z,29.22
2022-08-29T09:21:46.200Z,29.42
2022-08-29T09:22:44.349Z,29.5
2022-08-29T09:23:46.674Z,29.61
2022-08-29T09:24:44.333Z,29.55
2022-08-29T09:25:47.385Z,29.77
2022-08-29T09:26:44.326Z,29.55
2022-08-29T09:27:44.361Z,29.47
2022-08-29T09:28:44.346Z,28.7
2022-08-29T09:29:44.453Z,28.62
2022-08-29T09:30:44.340Z,28.65
2022-08-29T09:31:44.468Z,28.72
2022-08-29T09:32:44.389Z,29.09
2022-08-29T09:33:46.094Z,29.07
2022-08-29T09:35:12.558Z,29.37
2022-08-29T09:35:44.346Z,29.59
2022-08-29T09:36:47.510Z,29.52
2022-08-29T09:37:44.377Z,29.79
2022-08-29T09:38:44.396Z,29.68
2022-08-29T09:39:46.038Z,29.76
2022-08-29T09:40:44.716Z,29.64
2022-08-29T09:41:44.352Z,29.59
2022-08-29T09:42:44.397Z,29.68
2022-08-29T09:43:44.386Z,29.58
2022-08-29T09:44:44.365Z,29.9
2022-08-29T09:45:44.526Z,29.81
2022-08-29T09:46:44.375Z,29.67
2022-08-29T09:47:47.152Z,29.31
2022-08-29T09:48:44.422Z,29.73
2022-08-29T09:49:44.382Z,29.86
2022-08-29T09:50:44.421Z,30.01
2022-08-29T09:51:44.381Z,30.06
2022-08-29T09:52:44.885Z,30.33
2022-08-29T09:53:44.385Z,30.55
2022-08-29T09:54:44.386Z,30.38
2022-08-29T09:55:47.336Z,30.44
2022-08-29T09:56:44.415Z,30.56
2022-08-29T09:57:44.403Z,30.49
2022-08-29T09:58:48.169Z,30.67
2022-08-29T09:59:51.990Z,30.39
2022-08-29T10:00:44.812Z,30.55
2022-08-29T10:01:44.671Z,30.73
2022-08-29T10:02:46.374Z,30.93
2022-08-29T10:03:48.769Z,30.95
2022-08-29T10:04:44.405Z,31.08
2022-08-29T10:05:44.472Z,30.93
2022-08-29T10:06:54.897Z,30.69
2022-08-29T10:07:44.449Z,30.8
2022-08-29T10:08:44.409Z,30.7
2022-08-29T10:09:47.263Z,30.71
2022-08-29T10:10:44.415Z,30.7
2022-08-29T10:11:44.424Z,30.73
2022-08-29T10:12:44.445Z,30.08
2022-08-29T10:13:44.426Z,29.99
2022-08-29T10:14:55.578Z,30.16
2022-08-29T10:15:55.524Z,30.44
2022-08-29T10:16:44.786Z,30.48
2022-08-29T10:17:44.453Z,30.58
2022-08-29T10:18:44.435Z,30.39
2022-08-29T10:19:44.451Z,30.13
2022-08-29T10:20:46.074Z,30.21
2022-08-29T10:21:44.432Z,29.58
2022-08-29T10:22:44.468Z,30.05
2022-08-29T10:23:44.443Z,30.26
2022-08-29T10:24:44.443Z,29.49
2022-08-29T10:25:47.504Z,29.84
2022-08-29T10:26:44.443Z,30.06
2022-08-29T10:27:44.472Z,30.23
2022-08-29T10:28:44.463Z,30.49
2022-08-29T10:29:44.457Z,30.1
2022-08-29T10:30:44.466Z,30.31
2022-08-29T10:31:44.641Z,30.46
2022-08-29T10:32:44.478Z,30.7
2022-08-29T10:33:44.474Z,30.61
2022-08-29T10:34:46.880Z,30.7
2022-08-29T10:35:44.472Z,30.86
2022-08-29T10:36:44.518Z,30.98
2022-08-29T10:37:44.484Z,31.13
2022-08-29T10:38:44.481Z,31.23
2022-08-29T10:39:45.170Z,31.28
2022-08-29T10:40:48.284Z,31.28
2022-08-29T10:41:48.356Z,30.95
2022-08-29T10:42:44.512Z,31.18
2022-08-29T10:43:44.522Z,31.1
2022-08-29T10:44:44.485Z,31.28
2022-08-29T10:45:44.745Z,30.74
2022-08-29T10:46:44.486Z,30.73
2022-08-29T10:47:44.504Z,30.35
2022-08-29T10:48:44.506Z,30.33
2022-08-29T10:49:49.415Z,30.73
2022-08-29T10:50:49.519Z,30.8
2022-08-29T10:51:44.500Z,30.71
2022-08-29T10:52:44.521Z,30.59
2022-08-29T10:53:44.501Z,30.16
2022-08-29T10:54:44.511Z,30.29
2022-08-29T10:55:44.508Z,30.63
2022-08-29T10:56:44.507Z,30.93
2022-08-29T10:57:47.322Z,30.95
2022-08-29T10:58:44.510Z,30.69
2022-08-29T10:59:44.503Z,30.71
2022-08-29T11:00:44.721Z,30.77
2022-08-29T11:01:44.820Z,30.95
2022-08-29T11:02:47.033Z,30.99
2022-08-29T11:03:44.690Z,31.1
2022-08-29T11:04:44.525Z,30.96
2022-08-29T11:05:44.527Z,30.67
2022-08-29T11:06:44.536Z,29.92
2022-08-29T11:07:44.546Z,30.58
2022-08-29T11:08:47.601Z,30.86
2022-08-29T11:09:44.529Z,31.17
2022-08-29T11:10:44.558Z,31.25
2022-08-29T11:11:44.537Z,30.93
2022-08-29T11:12:44.553Z,31.15
2022-08-29T11:13:44.573Z,31.33
2022-08-29T11:14:44.538Z,31.37
2022-08-29T11:15:44.542Z,31.13
2022-08-29T11:16:45.050Z,31.23
2022-08-29T11:17:44.562Z,31.5
2022-08-29T11:18:44.570Z,31.41
2022-08-29T11:19:47.328Z,31.57
2022-08-29T11:20:44.768Z,31.44
2022-08-29T11:21:44.571Z,31.35
2022-08-29T11:22:44.582Z,31.55
2022-08-29T11:23:44.573Z,31.42
2022-08-29T11:24:49.765Z,31.18
2022-08-29T11:25:44.569Z,31.18
2022-08-29T11:26:44.579Z,31.39
2022-08-29T11:27:44.588Z,31.55
2022-08-29T11:29:44.573Z,31.62
2022-08-29T11:30:50.487Z,31.7
2022-08-29T11:31:44.786Z,31.36
2022-08-29T11:32:44.601Z,31.73
2022-08-29T11:33:44.582Z,31.74
2022-08-29T11:34:44.574Z,31.9
2022-08-29T11:35:44.605Z,31.74
2022-08-29T11:36:44.584Z,31.92
2022-08-29T11:37:44.607Z,31.98
2022-08-29T11:38:44.584Z,31.89
2022-08-29T11:39:44.584Z,31.64
2022-08-29T11:41:26.838Z,31.79
2022-08-29T11:41:48.018Z,31.74
2022-08-29T11:43:00.031Z,31.36
2022-08-29T11:43:44.599Z,31.67
2022-08-29T11:44:44.607Z,31.89
2022-08-29T11:45:44.605Z,31.87
2022-08-29T11:46:44.832Z,31.81
2022-08-29T11:47:45.824Z,31.37
2022-08-29T11:48:44.591Z,31.64
2022-08-29T11:49:44.618Z,31.78
2022-08-29T11:50:44.768Z,31.78
2022-08-29T11:51:44.621Z,31.77
2022-08-29T11:52:47.638Z,31.63
2022-08-29T11:53:44.642Z,31.14
2022-08-29T11:54:44.895Z,31.51
2022-08-29T11:55:44.625Z,31.52
2022-08-29T11:56:44.630Z,31.11
2022-08-29T11:57:44.671Z,31.37
2022-08-29T11:58:51.499Z,31.45
2022-08-29T11:59:44.656Z,31.57
2022-08-29T12:00:44.650Z,31.28
2022-08-29T12:01:44.808Z,30.93
2022-08-29T12:02:49.189Z,30.99
2022-08-29T12:03:45.545Z,31.17
2022-08-29T12:04:44.892Z,31.33
2022-08-29T12:05:44.644Z,31.45
2022-08-29T12:06:44.640Z,31.44
2022-08-29T12:07:44.642Z,31.33
2022-08-29T12:08:44.506Z,31.29
2022-08-29T12:09:44.709Z,31.44
2022-08-29T12:10:44.697Z,31.26
2022-08-29T12:11:45.270Z,31.23
2022-08-29T12:12:44.652Z,31.29
2022-08-29T12:13:44.673Z,31.14
2022-08-29T12:14:47.501Z,31.32
2022-08-29T12:15:44.659Z,31.59
2022-08-29T12:16:45.069Z,31.44
2022-08-29T12:18:06.595Z,31.64
2022-08-29T12:18:44.678Z,31.66
2022-08-29T12:19:47.858Z,31.86
2022-08-29T12:20:44.693Z,31.55
2022-08-29T12:21:44.679Z,31.66
2022-08-29T12:23:44.739Z,30.77
2022-08-29T12:24:44.683Z,30.74
2022-08-29T12:25:52.171Z,31.1
2022-08-29T12:26:44.680Z,31.2
2022-08-29T12:27:44.724Z,31.17
2022-08-29T12:28:44.712Z,31.18
2022-08-29T12:29:51.741Z,30.99
2022-08-29T12:30:47.921Z,31.25
2022-08-29T12:32:22.523Z,31.18
2022-08-29T12:32:45.648Z,30.78
2022-08-29T12:33:44.756Z,30.96
2022-08-29T12:34:51.354Z,31.23
2022-08-29T12:35:45.076Z,31.39
2022-08-29T12:36:56.529Z,31.37
2022-08-29T12:37:44.719Z,31.54
2022-08-29T12:38:47.144Z,31.6
2022-08-29T12:39:44.708Z,31.72
2022-08-29T12:40:44.956Z,31.39
2022-08-29T12:41:47.496Z,31.7
2022-08-29T12:42:44.755Z,31.92
2022-08-29T12:43:44.773Z,31.72
2022-08-29T12:44:45.108Z,31.74
2022-08-29T12:45:44.785Z,31.78
2022-08-29T12:46:45.089Z,31.66
2022-08-29T12:47:50.401Z,31.55
2022-08-29T12:48:46.195Z,31.86
2022-08-29T12:49:44.730Z,31.59
2022-08-29T12:50:44.763Z,31.25
2022-08-29T12:51:44.740Z,31.6
2022-08-29T12:52:47.563Z,31.78
2022-08-29T12:53:44.754Z,31.7
2022-08-29T12:54:48.247Z,32.09
2022-08-29T12:55:44.751Z,31.82
2022-08-29T12:56:44.748Z,31.78
2022-08-29T12:57:44.750Z,31.89